Time;durP1;ratioP1;P1;durP2;ratioP2;P2;SDS_P1;SDS_P2;PMS_P1;PMS_P2;Temp;Humidity;BMP_temperature;BMP_pressure;BME280_temperature;BME280_humidity;BME280_pressure;Samples;Min_cycle;Max_cycle;Signal;HPM_P1;HPM_P2
2023/04/15 00:00:15;;;;;;;33.60;9.85;;;9.90;99.90;;;;;;5052533;28;20492;-73
2023/04/15 00:03:23;;;;;;;37.70;10.40;;;11.40;99.90;;;;;;5051301;28;20044;-74
2023/04/15 00:06:28;;;;;;;40.42;9.88;;;;;;;;;;5052520;28;20056;-74
2023/04/15 00:09:32;;;;;;;39.85;9.85;;;;;;;;;;5052430;28;20496;-74
2023/04/15 00:12:36;;;;;;;31.13;8.00;;;;;;;;;;5052242;28;20050;-73
2023/04/15 00:15:41;;;;;;;41.13;9.13;;;;;;;;;;5052367;28;20143;-74
2023/04/15 00:18:45;;;;;;;28.13;9.38;;;11.50;99.90;;;;;;5052306;28;20055;-74
2023/04/15 00:21:49;;;;;;;34.60;8.68;;;11.40;99.90;;;;;;5052065;28;20048;-74
2023/04/15 00:24:53;;;;;;;30.42;8.35;;;11.50;99.90;;;;;;5051953;28;20512;-74
2023/04/15 00:27:57;;;;;;;29.42;8.57;;;11.30;99.90;;;;;;5051901;28;20043;-74
2023/04/15 00:31:03;;;;;;;38.53;9.23;;;;;;;;;;5051786;28;20056;-74
2023/04/15 00:34:06;;;;;;;36.90;9.18;;;11.00;99.90;;;;;;5039690;28;20060;-74
2023/04/15 00:37:11;;;;;;;27.98;8.27;;;11.00;99.90;;;;;;5051354;28;20044;-75
2023/04/15 00:40:18;;;;;;;31.85;9.15;;;10.90;99.90;;;;;;5050820;28;20399;-75
2023/04/15 00:43:22;;;;;;;35.35;8.50;;;10.90;99.90;;;;;;5052057;28;20044;-75
2023/04/15 00:46:28;;;;;;;35.42;8.20;;;11.60;99.90;;;;;;5051789;28;20063;-74
2023/04/15 00:49:32;;;;;;;40.05;8.52;;;11.00;99.90;;;;;;5050891;28;20040;-75
2023/04/15 00:52:36;;;;;;;38.35;8.60;;;12.20;99.90;;;;;;5050951;28;20052;-75
2023/04/15 00:55:41;;;;;;;35.50;8.70;;;10.80;99.90;;;;;;5051029;28;20055;-75
2023/04/15 00:58:45;;;;;;;30.42;7.50;;;10.60;99.90;;;;;;5051653;28;20048;-74
2023/04/15 01:01:50;;;;;;;39.67;9.40;;;10.80;99.90;;;;;;5039546;28;20448;-75
2023/04/15 01:04:55;;;;;;;26.60;8.40;;;10.80;99.90;;;;;;5051313;28;20056;-74
2023/04/15 01:08:00;;;;;;;26.52;7.65;;;;;;;;;;5050409;28;20040;-75
2023/04/15 01:11:05;;;;;;;31.85;7.65;;;10.90;99.90;;;;;;5049932;28;20060;-73
2023/04/15 01:14:09;;;;;;;27.38;7.82;;;10.80;99.90;;;;;;5051874;28;20056;-73
2023/04/15 01:17:14;;;;;;;30.92;7.15;;;11.00;99.90;;;;;;5051785;28;20060;-73
2023/04/15 01:20:18;;;;;;;30.25;6.95;;;10.90;99.90;;;;;;5051478;28;20048;-73
2023/04/15 01:23:22;;;;;;;25.20;6.97;;;11.90;99.90;;;;;;5050479;28;20052;-73
2023/04/15 01:26:27;;;;;;;26.67;6.40;;;10.90;99.90;;;;;;5050411;28;20397;-73
2023/04/15 01:29:37;;;;;;;25.45;7.43;;;11.40;99.90;;;;;;5051359;28;20037;-73
2023/04/15 01:32:42;;;;;;;31.73;7.95;;;10.90;99.90;;;;;;5051019;28;20064;-73
2023/04/15 01:36:09;;;;;;;32.85;7.13;;;12.50;99.90;;;;;;5051189;28;20044;-73
2023/04/15 01:39:14;;;;;;;25.88;7.22;;;10.80;99.90;;;;;;5051141;28;20405;-73
2023/04/15 01:42:18;;;;;;;28.73;7.25;;;11.30;99.90;;;;;;5050106;28;20040;-73
2023/04/15 01:45:23;;;;;;;30.30;7.93;;;8.90;99.90;;;;;;5050892;28;20044;-73
2023/04/15 01:48:29;;;;;;;27.73;7.15;;;11.00;99.90;;;;;;5050792;28;20055;-73
2023/04/15 01:51:35;;;;;;;31.25;7.47;;;12.00;99.90;;;;;;5049782;28;20059;-73
2023/04/15 01:54:39;;;;;;;31.63;7.28;;;10.90;99.90;;;;;;5050885;28;20040;-73
2023/04/15 01:57:45;;;;;;;22.77;6.05;;;10.80;99.90;;;;;;5050680;28;20060;-73
2023/04/15 02:00:50;;;;;;;24.90;6.43;;;11.00;99.90;;;;;;5050049;28;20130;-73
2023/04/15 02:03:56;;;;;;;37.85;6.95;;;11.00;99.90;;;;;;5050568;28;20052;-73
2023/04/15 02:07:02;;;;;;;31.17;6.82;;;10.90;99.90;;;;;;5051155;28;20065;-73
2023/04/15 02:10:08;;;;;;;31.10;5.95;;;10.90;99.90;;;;;;5050506;28;20056;-73
2023/04/15 02:13:14;;;;;;;23.70;6.20;;;11.00;99.90;;;;;;5049867;28;20050;-73
2023/04/15 02:16:19;;;;;;;31.40;6.35;;;11.00;99.90;;;;;;5053608;28;20040;-73
2023/04/15 02:19:24;;;;;;;21.90;6.35;;;10.70;99.90;;;;;;5054484;28;20051;-73
2023/04/15 02:22:30;;;;;;;23.15;5.90;;;10.50;99.90;;;;;;5053429;28;20040;-74
2023/04/15 02:25:36;;;;;;;25.50;5.70;;;10.70;99.90;;;;;;5054009;28;20554;-73
2023/04/15 02:28:43;;;;;;;32.90;6.28;;;10.70;99.90;;;;;;5053489;28;20036;-73
2023/04/15 02:31:55;;;;;;;30.48;6.20;;;10.90;99.90;;;;;;5054233;28;20119;-74
2023/04/15 02:35:07;;;;;;;;;;;10.80;99.90;;;;;;5054381;28;20052;-74
2023/04/15 02:38:15;;;;;;;25.90;5.80;;;11.00;99.90;;;;;;5053070;28;19916;-74
2023/04/15 02:41:26;;;;;;;18.08;5.72;;;;;;;;;;5053929;28;20040;-73
2023/04/15 02:44:32;;;;;;;29.55;6.10;;;10.80;99.90;;;;;;5053480;28;20048;-74
2023/04/15 02:47:40;;;;;;;29.88;4.90;;;10.90;99.90;;;;;;5053037;28;20040;-73
2023/04/15 02:50:46;;;;;;;21.73;5.35;;;11.40;99.90;;;;;;5052688;28;20409;-73
2023/04/15 02:53:53;;;;;;;23.38;4.95;;;11.30;99.90;;;;;;5052881;28;20052;-74
2023/04/15 02:56:58;;;;;;;25.88;6.15;;;12.90;99.90;;;;;;5053569;28;20040;-74
2023/04/15 03:00:05;;;;;;;36.67;4.97;;;11.00;99.90;;;;;;5052621;28;20040;-74
2023/04/15 03:03:13;;;;;;;24.63;5.20;;;11.00;99.90;;;;;;5052512;28;20035;-74
2023/04/15 03:06:19;;;;;;;35.50;4.85;;;11.00;99.90;;;;;;5052694;28;20108;-74
2023/04/15 03:09:25;;;;;;;27.85;4.72;;;;;;;;;;5053090;28;20055;-74
2023/04/15 03:12:31;;;;;;;33.38;4.57;;;11.10;99.90;;;;;;5053003;28;20074;-74
2023/04/15 03:15:36;;;;;;;32.75;5.53;;;11.20;99.90;;;;;;5052554;28;20374;-74
2023/04/15 03:18:42;;;;;;;30.52;5.32;;;11.30;99.90;;;;;;5055987;28;20407;-74
2023/04/15 03:21:48;;;;;;;28.17;5.47;;;;;;;;;;5052727;28;20044;-74
2023/04/15 03:24:53;;;;;;;28.20;4.75;;;11.50;99.90;;;;;;5052234;28;20051;-74
2023/04/15 03:27:59;;;;;;;27.63;4.85;;;11.10;99.90;;;;;;5052887;28;20044;-74
2023/04/15 03:31:05;;;;;;;21.30;6.13;;;11.40;99.90;;;;;;5052094;28;20052;-74
2023/04/15 03:34:11;;;;;;;26.83;5.38;;;;;;;;;;5052128;28;20052;-74
2023/04/15 03:37:16;;;;;;;36.65;5.53;;;;;;;;;;5052866;28;20642;-74
2023/04/15 03:40:21;;;;;;;30.95;6.72;;;11.40;99.90;;;;;;5053277;28;20044;-74
2023/04/15 03:43:27;;;;;;;31.65;6.28;;;11.30;99.90;;;;;;5052969;28;20043;-74
2023/04/15 03:46:32;;;;;;;26.13;5.50;;;11.30;99.90;;;;;;5053218;28;20048;-74
2023/04/15 03:49:37;;;;;;;29.58;6.25;;;11.30;99.90;;;;;;5051764;28;20044;-74
2023/04/15 03:52:43;;;;;;;37.00;6.40;;;10.80;99.90;;;;;;5052861;28;20060;-74
2023/04/15 03:55:49;;;;;;;40.40;8.15;;;11.30;99.90;;;;;;5052786;28;20040;-74
2023/04/15 03:58:54;;;;;;;27.75;6.60;;;11.30;99.90;;;;;;5052752;28;20063;-74
2023/04/15 04:02:00;;;;;;;38.10;7.70;;;11.40;99.90;;;;;;5052591;28;20048;-74
2023/04/15 04:05:05;;;;;;;37.08;7.88;;;11.10;99.90;;;;;;5052838;28;20416;-74
2023/04/15 04:08:12;;;;;;;25.95;8.18;;;11.20;99.90;;;;;;5052296;28;20040;-73
2023/04/15 04:11:19;;;;;;;35.85;7.13;;;11.30;99.90;;;;;;5052100;28;20040;-73
2023/04/15 04:14:28;;;;;;;23.85;8.60;;;11.40;99.90;;;;;;5052887;28;20052;-74
2023/04/15 04:17:33;;;;;;;29.02;6.88;;;11.30;99.90;;;;;;5053237;28;20048;-74
2023/04/15 04:20:38;;;;;;;26.33;6.47;;;12.30;99.90;;;;;;5052684;28;20056;-73
2023/04/15 04:23:44;;;;;;;30.60;6.38;;;;;;;;;;5053516;28;20048;-74
2023/04/15 04:26:49;;;;;;;30.13;5.43;;;11.10;99.90;;;;;;5052571;28;20052;-75
2023/04/15 04:29:56;;;;;;;29.33;5.07;;;;;;;;;;5052966;28;20048;-75
2023/04/15 04:33:01;;;;;;;31.60;5.97;;;9.80;99.90;;;;;;5053272;28;20060;-74
2023/04/15 04:36:06;;;;;;;24.35;4.35;;;11.20;99.90;;;;;;5054447;28;20036;-76
2023/04/15 04:39:11;;;;;;;32.55;5.30;;;11.40;99.90;;;;;;5052525;28;20048;-74
2023/04/15 04:42:16;;;;;;;26.73;4.38;;;11.40;99.90;;;;;;5052989;28;20052;-75
2023/04/15 04:45:23;;;;;;;25.75;5.97;;;8.90;99.90;;;;;;5052602;28;20040;-75
2023/04/15 04:48:28;;;;;;;24.80;4.90;;;11.60;99.90;;;;;;5052192;28;20044;-73
2023/04/15 04:51:34;;;;;;;25.92;4.85;;;11.60;99.90;;;;;;5052757;28;20052;-74
2023/04/15 04:54:40;;;;;;;24.20;4.75;;;11.70;99.90;;;;;;5051528;28;20044;-73
2023/04/15 04:57:45;;;;;;;31.08;4.78;;;11.70;99.90;;;;;;5051057;28;20487;-73
2023/04/15 05:00:50;;;;;;;25.98;4.85;;;11.60;99.90;;;;;;5050539;28;20036;-73
2023/04/15 05:03:59;;;;;;;30.17;4.63;;;11.80;99.90;;;;;;5050812;28;20060;-73
2023/04/15 05:07:04;;;;;;;28.30;6.13;;;11.80;99.90;;;;;;5050611;28;20183;-73
2023/04/15 05:10:10;;;;;;;26.45;3.80;;;12.20;99.90;;;;;;5050575;28;20056;-74
2023/04/15 05:13:15;;;;;;;26.60;5.00;;;;;;;;;;5050467;28;20416;-74
2023/04/15 05:16:20;;;;;;;30.75;5.10;;;11.70;99.90;;;;;;5050498;28;20040;-74
2023/04/15 05:19:26;;;;;;;30.48;4.32;;;12.50;99.90;;;;;;5050458;28;20063;-74
2023/04/15 05:22:31;;;;;;;23.23;4.30;;;11.50;99.90;;;;;;5050648;28;20039;-74
2023/04/15 05:25:37;;;;;;;28.30;5.43;;;;;;;;;;5050437;28;20064;-75
2023/04/15 05:28:42;;;;;;;26.70;4.60;;;;;;;;;;5050579;28;20052;-75
2023/04/15 05:31:47;;;;;;;32.95;5.68;;;11.80;99.90;;;;;;5050485;28;20048;-74
2023/04/15 05:34:52;;;;;;;24.80;4.40;;;12.10;99.90;;;;;;5050466;28;20397;-74
2023/04/15 05:37:57;;;;;;;19.95;4.40;;;11.90;99.90;;;;;;5050546;28;20048;-74
2023/04/15 05:41:02;;;;;;;24.70;4.55;;;11.80;99.90;;;;;;5050446;28;20393;-74
2023/04/15 05:44:08;;;;;;;22.23;4.75;;;;;;;;;;5050381;28;20044;-73
2023/04/15 05:47:13;;;;;;;24.60;4.63;;;;;;;;;;5050286;28;20036;-72
2023/04/15 05:50:20;;;;;;;22.30;4.35;;;;;;;;;;5051643;28;20044;-74
2023/04/15 05:53:25;;;;;;;22.08;4.60;;;;;;;;;;5054364;28;20056;-74
2023/04/15 05:56:31;;;;;;;21.27;4.38;;;;;;;;;;5054270;28;20047;-73
2023/04/15 05:59:37;;;;;;;21.48;3.88;;;12.10;99.90;;;;;;5054158;28;20044;-73
2023/04/15 06:02:42;;;;;;;21.90;4.38;;;11.90;99.90;;;;;;5054203;28;20035;-75
2023/04/15 06:05:48;;;;;;;18.58;3.90;;;11.70;99.90;;;;;;5054234;28;20063;-76
2023/04/15 06:08:56;;;;;;;28.65;5.20;;;;;;;;;;5054113;28;20043;-75
2023/04/15 06:12:02;;;;;;;26.88;4.68;;;;;;;;;;5054024;28;20048;-74
2023/04/15 06:15:09;;;;;;;21.38;5.35;;;11.30;99.90;;;;;;5054074;28;20056;-72
2023/04/15 06:18:14;;;;;;;24.15;5.13;;;11.00;99.90;;;;;;5054012;28;20040;-72
2023/04/15 06:21:19;;;;;;;19.52;4.50;;;10.60;99.90;;;;;;5053838;28;20607;-72
2023/04/15 06:24:25;;;;;;;19.20;5.00;;;;;;;;;;5053597;28;20040;-77
2023/04/15 06:27:30;;;;;;;19.92;4.60;;;10.90;99.90;;;;;;5054044;28;20052;-82
2023/04/15 06:30:37;;;;;;;25.17;4.75;;;10.70;99.90;;;;;;5053909;28;20040;-77
2023/04/15 06:33:42;;;;;;;23.35;3.90;;;10.40;99.90;;;;;;5054136;28;20060;-78
2023/04/15 06:36:48;;;;;;;14.60;3.55;;;10.50;99.90;;;;;;5054198;28;20044;-76
2023/04/15 06:39:53;;;;;;;20.55;5.07;;;10.90;99.90;;;;;;5052751;28;20044;-74
2023/04/15 06:42:58;;;;;;;25.05;5.43;;;12.10;99.90;;;;;;5053633;28;20048;-75
2023/04/15 06:46:04;;;;;;;22.73;5.35;;;10.70;99.90;;;;;;5053008;28;20535;-77
2023/04/15 06:49:10;;;;;;;22.77;5.35;;;11.00;99.90;;;;;;5053658;28;20519;-70
2023/04/15 06:52:15;;;;;;;17.70;4.78;;;11.10;99.90;;;;;;5053771;28;20040;-73
2023/04/15 06:55:21;;;;;;;22.52;4.15;;;11.10;99.90;;;;;;5053756;28;20044;-68
2023/04/15 06:58:26;;;;;;;19.85;4.38;;;11.30;99.90;;;;;;5053938;28;20036;-79
2023/04/15 07:01:32;;;;;;;26.65;5.35;;;11.40;99.90;;;;;;5053269;28;20396;-73
2023/04/15 07:04:38;;;;;;;23.73;4.63;;;;;;;;;;5053997;28;20044;-78
2023/04/15 07:07:44;;;;;;;20.80;5.88;;;11.60;99.90;;;;;;5052875;28;20044;-76
2023/04/15 07:10:50;;;;;;;23.38;4.85;;;11.90;99.90;;;;;;5053855;28;20036;-78
2023/04/15 07:13:56;;;;;;;21.75;4.35;;;11.90;99.90;;;;;;5053107;28;20044;-78
2023/04/15 07:17:02;;;;;;;17.27;3.42;;;11.80;99.90;;;;;;5054127;28;20048;-78
2023/04/15 07:20:07;;;;;;;15.88;3.58;;;11.70;99.90;;;;;;5053636;28;20064;-75
2023/04/15 07:23:13;;;;;;;15.35;3.03;;;12.20;99.90;;;;;;5053704;28;20048;-77
2023/04/15 07:26:18;;;;;;;16.67;4.40;;;;;;;;;;5053076;28;20056;-77
2023/04/15 07:29:24;;;;;;;18.63;3.38;;;11.90;99.90;;;;;;5052887;28;20039;-74
2023/04/15 07:32:30;;;;;;;14.70;3.20;;;11.80;99.90;;;;;;5052886;28;20119;-76
2023/04/15 07:35:35;;;;;;;12.20;3.33;;;;;;;;;;5052744;28;20051;-78
2023/04/15 07:38:41;;;;;;;22.85;3.67;;;12.00;99.90;;;;;;5053331;28;20032;-79
2023/04/15 07:41:47;;;;;;;16.70;3.58;;;;;;;;;;5052585;28;20510;-77
2023/04/15 07:44:52;;;;;;;17.23;3.25;;;12.20;99.90;;;;;;5053890;28;20040;-76
2023/04/15 07:47:58;;;;;;;18.80;3.42;;;;;;;;;;5052505;28;20044;-76
2023/04/15 07:51:03;;;;;;;17.45;2.67;;;12.60;99.90;;;;;;5052669;28;20040;-78
2023/04/15 07:54:09;;;;;;;14.77;3.45;;;12.00;99.90;;;;;;5052472;28;20071;-78
2023/04/15 07:57:15;;;;;;;21.08;3.35;;;;;;;;;;5053078;28;20048;-72
2023/04/15 08:00:22;;;;;;;14.80;2.88;;;;;;;;;;5052668;28;20111;-71
2023/04/15 08:03:27;;;;;;;15.07;3.35;;;12.70;99.90;;;;;;5052422;28;20044;-72
2023/04/15 08:06:33;;;;;;;15.55;2.75;;;;;;;;;;5052251;28;20523;-74
2023/04/15 08:09:38;;;;;;;16.70;2.65;;;12.50;99.90;;;;;;5052077;28;20044;-73
2023/04/15 08:12:47;;;;;;;15.43;2.30;;;12.40;99.90;;;;;;5051824;28;20057;-75
2023/04/15 08:16:13;;;;;;;11.50;2.90;;;13.80;99.90;;;;;;5052116;28;20052;-72
2023/04/15 08:19:19;;;;;;;14.40;2.33;;;12.70;99.90;;;;;;5054545;28;20067;-74
2023/04/15 08:22:24;;;;;;;14.32;3.13;;;12.90;99.90;;;;;;5053075;28;20052;-74
2023/04/15 08:25:30;;;;;;;9.88;2.63;;;;;;;;;;5053101;28;20060;-75
2023/04/15 08:28:38;;;;;;;11.90;2.88;;;13.10;99.90;;;;;;5052026;28;20370;-78
2023/04/15 08:31:44;;;;;;;12.43;2.72;;;;;;;;;;5052705;28;20040;-73
2023/04/15 08:34:50;;;;;;;11.95;3.10;;;;;;;;;;5051860;28;20515;-73
2023/04/15 08:37:55;;;;;;;14.35;2.97;;;13.60;99.90;;;;;;5052305;28;20381;-73
2023/04/15 08:41:05;;;;;;;12.02;2.72;;;16.60;99.90;;;;;;5050391;28;20059;-74
2023/04/15 08:44:12;;;;;;;15.65;2.80;;;14.10;99.90;;;;;;5050937;28;20036;-75
2023/04/15 08:47:21;;;;;;;15.88;3.10;;;14.10;99.90;;;;;;5050958;28;20051;-76
2023/04/15 08:50:31;;;;;;;12.88;2.80;;;14.80;99.90;;;;;;5051100;28;20060;-76
2023/04/15 08:53:36;;;;;;;13.88;2.50;;;14.50;99.00;;;;;;5052388;28;20059;-75
2023/04/15 08:56:41;;;;;;;10.27;1.85;;;14.50;97.50;;;;;;5051347;28;20056;-75
2023/04/15 08:59:48;;;;;;;14.65;1.92;;;14.60;97.50;;;;;;5052752;28;20044;-74
2023/04/15 09:02:57;;;;;;;11.35;2.00;;;14.60;99.00;;;;;;5051599;28;20047;-75
2023/04/15 09:06:04;;;;;;;17.05;2.40;;;14.50;99.30;;;;;;5051523;28;20071;-76
2023/04/15 09:09:12;;;;;;;12.90;2.13;;;14.30;99.30;;;;;;5051737;28;20071;-75
2023/04/15 09:12:17;;;;;;;9.80;1.80;;;14.50;99.70;;;;;;5051030;28;20048;-75
2023/04/15 09:15:28;;;;;;;6.90;1.77;;;14.60;99.90;;;;;;5051615;28;20048;-75
2023/04/15 09:18:35;;;;;;;9.20;1.63;;;14.30;99.90;;;;;;5050363;28;20083;-75
2023/04/15 09:21:41;;;;;;;8.20;1.65;;;17.90;99.90;;;;;;5053038;28;20453;-76
2023/04/15 09:24:47;;;;;;;7.57;1.60;;;;;;;;;;5052460;28;20040;-75
2023/04/15 09:27:54;;;;;;;9.52;1.95;;;;;;;;;;5051569;28;20029;-75
2023/04/15 09:31:01;;;;;;;12.65;2.42;;;14.00;99.90;;;;;;5051064;28;20041;-77
2023/04/15 09:34:07;;;;;;;12.85;1.88;;;;;;;;;;5050767;28;20048;-74
2023/04/15 09:37:14;;;;;;;18.42;2.90;;;11.20;99.90;;;;;;5050884;28;20052;-74
2023/04/15 09:40:37;;;;;;;13.15;2.63;;;14.10;99.90;;;;;;5051087;28;20495;-77
2023/04/15 09:43:42;;;;;;;11.68;2.63;;;;;;;;;;5050906;28;20593;-75
2023/04/15 09:46:47;;;;;;;15.45;3.17;;;14.50;99.90;;;;;;5050550;28;20063;-75
2023/04/15 09:50:00;;;;;;;11.25;2.30;;;13.10;99.90;;;;;;5049926;28;20044;-75
2023/04/15 09:53:05;;;;;;;12.15;2.58;;;;;;;;;;5050552;28;20645;-75
2023/04/15 09:56:11;;;;;;;20.58;3.20;;;;;;;;;;5050131;28;20063;-75
2023/04/15 09:59:17;;;;;;;19.17;2.72;;;14.00;99.90;;;;;;5050312;28;20036;-75
2023/04/15 10:02:23;;;;;;;17.52;2.80;;;;;;;;;;5050600;28;20040;-76
2023/04/15 10:05:29;;;;;;;14.85;2.63;;;14.00;99.90;;;;;;5050877;28;20400;-77
2023/04/15 10:08:34;;;;;;;8.10;2.60;;;;;;;;;;5049875;28;20044;-75
2023/04/15 10:11:41;;;;;;;14.52;3.00;;;14.10;99.90;;;;;;5050882;28;20037;-76
2023/04/15 10:14:52;;;;;;;12.75;2.63;;;14.00;99.90;;;;;;5050889;28;20056;-78
2023/04/15 10:17:59;;;;;;;6.50;1.83;;;14.00;99.90;;;;;;5051051;28;20059;-76
2023/04/15 10:21:05;;;;;;;9.60;1.85;;;;;;;;;;5050512;28;20047;-76
2023/04/15 10:24:11;;;;;;;7.15;1.77;;;;;;;;;;5050859;28;20033;-75
2023/04/15 10:27:17;;;;;;;7.72;2.35;;;13.90;99.90;;;;;;5050705;28;20041;-75
2023/04/15 10:30:22;;;;;;;6.47;1.27;;;13.80;99.90;;;;;;5050143;28;20116;-75
2023/04/15 10:33:28;;;;;;;6.88;1.80;;;;;;;;;;5051176;28;20047;-75
2023/04/15 10:36:34;;;;;;;3.60;1.60;;;;;;;;;;5052470;28;20045;-75
2023/04/15 10:39:41;;;;;;;5.93;1.80;;;13.90;99.90;;;;;;5053783;28;20473;-76
2023/04/15 10:42:47;;;;;;;5.85;1.70;;;13.90;99.90;;;;;;5054582;28;20052;-76
2023/04/15 10:45:52;;;;;;;6.88;1.95;;;13.90;99.90;;;;;;5055322;28;20393;-76
2023/04/15 10:49:12;;;;;;;5.40;1.98;;;15.30;99.90;;;;;;5054433;28;20040;-76
2023/04/15 10:52:26;;;;;;;4.80;1.90;;;18.20;99.90;;;;;;5055385;28;20036;-75
2023/04/15 10:55:33;;;;;;;4.90;2.20;;;13.90;99.90;;;;;;5054263;28;20079;-76
2023/04/15 10:58:42;;;;;;;9.93;2.60;;;14.70;99.90;;;;;;5053983;28;20043;-76
2023/04/15 11:01:53;;;;;;;7.82;2.95;;;12.70;99.90;;;;;;5054809;28;20048;-76
2023/04/15 11:05:00;;;;;;;5.28;2.60;;;;;;;;;;5053780;28;20389;-75
2023/04/15 11:08:07;;;;;;;9.20;2.55;;;;;;;;;;5053598;28;20056;-75
2023/04/15 11:11:13;;;;;;;10.82;3.20;;;;;;;;;;5053409;28;20029;-76
2023/04/15 11:14:19;;;;;;;10.60;3.78;;;;;;;;;;5052897;28;20060;-75
2023/04/15 11:17:30;;;;;;;8.45;4.25;;;13.40;99.90;;;;;;5052844;28;20052;-77
2023/04/15 11:20:35;;;;;;;;;;;13.80;99.90;;;;;;5053490;28;20039;-77
2023/04/15 11:23:45;;;;;;;7.05;2.97;;;13.10;99.90;;;;;;5051696;28;19909;-75
2023/04/15 11:26:51;;;;;;;7.47;3.40;;;;;;;;;;5012953;28;20053;-75
2023/04/15 11:29:56;;;;;;;11.10;4.70;;;;;;;;;;5012693;28;20033;-77
2023/04/15 11:33:03;;;;;;;8.00;3.58;;;;;;;;;;5012900;28;20049;-76
2023/04/15 11:36:09;;;;;;;11.45;4.78;;;14.50;99.90;;;;;;5012712;28;20042;-77
2023/04/15 11:39:15;;;;;;;6.10;3.10;;;13.20;99.90;;;;;;5012725;28;20037;-76
2023/04/15 11:42:21;;;;;;;6.68;3.22;;;;;;;;;;5012619;28;20045;-77
2023/04/15 11:45:26;;;;;;;9.02;2.95;;;;;;;;;;5012807;28;20033;-77
2023/04/15 11:48:34;;;;;;;9.32;2.50;;;14.80;99.90;;;;;;5012483;28;20042;-76
2023/04/15 11:51:39;;;;;;;4.82;2.20;;;;;;;;;;5012733;28;20438;-76
2023/04/15 11:54:44;;;;;;;6.82;2.33;;;;;;;;;;5012346;28;20378;-75
2023/04/15 11:57:48;;;;;;;4.43;2.30;;;;;;;;;;5013051;28;20498;-78
2023/04/15 12:00:59;;;;;;;10.20;3.40;;;15.10;99.90;;;;;;5012776;28;20372;-75
2023/04/15 12:04:16;;;;;;;4.18;3.13;;;13.70;99.90;;;;;;5012779;28;20048;-77
2023/04/15 12:07:20;;;;;;;33.00;21.13;;;;;;;;;;5012655;28;20406;-76
2023/04/15 12:10:25;;;;;;;11.98;7.07;;;;;;;;;;5011240;28;20049;-77
2023/04/15 12:13:29;;;;;;;9.60;4.22;;;;;;;;;;5012096;28;20041;-76
2023/04/15 12:16:35;;;;;;;18.63;10.82;;;13.60;99.90;;;;;;5012325;28;20050;-75
2023/04/15 12:19:40;;;;;;;14.13;8.23;;;13.40;99.90;;;;;;5012471;28;20049;-75
2023/04/15 12:22:44;;;;;;;15.13;4.75;;;13.50;99.90;;;;;;5011882;28;20501;-76
2023/04/15 12:25:51;;;;;;;14.63;6.00;;;13.80;99.90;;;;;;5037019;28;20090;-75
2023/04/15 12:29:00;;;;;;;11.15;4.75;;;13.50;99.90;;;;;;5051796;28;20040;-75
2023/04/15 12:32:09;;;;;;;16.10;4.75;;;13.50;99.90;;;;;;5051903;28;20040;-76
2023/04/15 12:35:14;;;;;;;18.73;6.35;;;;;;;;;;5051799;28;20267;-75
2023/04/15 12:38:17;;;;;;;12.45;5.22;;;13.60;99.90;;;;;;5050239;28;20055;-78
2023/04/15 12:41:23;;;;;;;16.13;8.35;;;13.70;99.90;;;;;;5052026;28;20043;-76
2023/04/15 12:44:27;;;;;;;12.90;5.95;;;14.60;99.90;;;;;;5051176;28;20400;-76
2023/04/15 12:47:32;;;;;;;15.35;7.22;;;;;;;;;;5051935;28;20052;-75
2023/04/15 12:50:35;;;;;;;15.68;6.80;;;14.30;99.90;;;;;;5050814;28;20040;-78
2023/04/15 12:53:39;;;;;;;13.00;6.15;;;14.10;99.90;;;;;;5051109;28;20040;-77
2023/04/15 12:56:48;;;;;;;11.82;6.80;;;14.40;99.90;;;;;;5050342;28;20060;-75
2023/04/15 12:59:52;;;;;;;14.27;5.53;;;13.90;99.90;;;;;;5050070;28;20099;-75
2023/04/15 13:02:57;;;;;;;14.50;5.00;;;;;;;;;;5050898;28;20036;-73
2023/04/15 13:06:03;;;;;;;9.68;4.30;;;14.80;99.90;;;;;;5051253;28;20373;-75
2023/04/15 13:09:07;;;;;;;13.80;4.85;;;;;;;;;;5050805;28;20043;-73
2023/04/15 13:12:12;;;;;;;15.32;6.10;;;14.30;99.90;;;;;;5051130;28;20056;-74
2023/04/15 13:15:19;;;;;;;13.65;7.75;;;;;;;;;;5051129;28;20047;-74
2023/04/15 13:18:23;;;;;;;13.60;4.93;;;;;;;;;;5052675;28;20055;-74
2023/04/15 13:21:27;;;;;;;12.23;5.20;;;14.00;99.90;;;;;;5052028;28;20044;-74
2023/04/15 13:24:32;;;;;;;12.02;5.55;;;14.10;99.90;;;;;;5050674;28;20048;-74
2023/04/15 13:27:35;;;;;;;17.13;6.28;;;14.00;99.90;;;;;;5050558;28;20068;-74
2023/04/15 13:30:39;;;;;;;14.50;5.85;;;16.50;99.90;;;;;;5050729;28;20040;-75
2023/04/15 13:33:43;;;;;;;11.38;3.90;;;13.20;99.90;;;;;;5050668;28;20040;-74
2023/04/15 13:36:47;;;;;;;7.05;3.58;;;;;;;;;;5051526;28;20052;-75
2023/04/15 13:39:51;;;;;;;13.50;5.40;;;13.70;99.90;;;;;;5050765;28;20041;-74
2023/04/15 13:42:56;;;;;;;7.35;3.10;;;14.70;99.90;;;;;;5050905;28;20535;-75
2023/04/15 13:46:01;;;;;;;8.45;3.22;;;15.00;99.90;;;;;;5050667;28;20040;-74
2023/04/15 13:49:05;;;;;;;9.02;3.33;;;16.50;99.90;;;;;;5050071;28;20036;-75
2023/04/15 13:52:10;;;;;;;7.80;2.60;;;14.60;99.90;;;;;;5050762;28;20052;-75
2023/04/15 13:55:14;;;;;;;9.27;3.25;;;13.20;99.90;;;;;;5050704;28;20047;-75
2023/04/15 13:58:18;;;;;;;7.95;2.58;;;14.70;99.90;;;;;;5049163;28;20047;-74
2023/04/15 14:01:22;;;;;;;7.82;2.75;;;14.60;99.90;;;;;;5050207;28;20044;-73
2023/04/15 14:04:26;;;;;;;5.70;2.40;;;;;;;;;;5050263;28;20044;-75
2023/04/15 14:07:30;;;;;;;5.22;2.60;;;14.60;99.90;;;;;;5050725;28;20044;-75
2023/04/15 14:10:34;;;;;;;7.25;2.60;;;14.80;99.90;;;;;;5052252;28;20055;-73
2023/04/15 14:13:38;;;;;;;10.13;3.13;;;14.70;99.90;;;;;;5054517;28;20055;-74
2023/04/15 14:16:42;;;;;;;16.02;4.55;;;;;;;;;;5055249;28;20052;-74
2023/04/15 14:19:46;;;;;;;6.60;2.70;;;14.60;99.90;;;;;;5054592;28;20044;-74
2023/04/15 14:22:51;;;;;;;7.18;3.97;;;;;;;;;;5054716;28;20044;-75
2023/04/15 14:25:55;;;;;;;5.38;1.85;;;14.50;99.90;;;;;;5054014;28;20053;-74
2023/04/15 14:28:59;;;;;;;6.72;2.50;;;;;;;;;;5054401;28;20403;-74
2023/04/15 14:32:04;;;;;;;4.90;2.10;;;;;;;;;;5053688;28;20044;-75
2023/04/15 14:35:09;;;;;;;6.32;2.60;;;;;;;;;;5055177;28;20044;-74
2023/04/15 14:38:13;;;;;;;5.78;2.40;;;16.70;99.90;;;;;;5054330;28;20053;-76
2023/04/15 14:41:17;;;;;;;4.85;2.40;;;;;;;;;;5053702;28;20056;-74
2023/04/15 14:44:22;;;;;;;8.02;2.75;;;;;;;;;;5054198;28;20041;-75
2023/04/15 14:47:27;;;;;;;6.55;2.92;;;;;;;;;;5053779;28;20037;-74
2023/04/15 14:50:31;;;;;;;7.22;2.25;;;;;;;;;;5053554;28;20033;-74
2023/04/15 14:53:35;;;;;;;4.38;3.03;;;14.20;99.90;;;;;;5053899;28;20041;-73
2023/04/15 14:56:39;;;;;;;6.72;2.00;;;;;;;;;;5053196;28;20044;-74
2023/04/15 14:59:44;;;;;;;4.20;2.00;;;;;;;;;;5055165;28;20041;-74
2023/04/15 15:02:48;;;;;;;5.10;2.13;;;;;;;;;;5055193;28;20037;-72
2023/04/15 15:05:52;;;;;;;6.40;2.30;;;;;;;;;;5054506;28;20378;-76
2023/04/15 15:08:57;;;;;;;7.72;2.35;;;;;;;;;;5053056;28;20037;-74
2023/04/15 15:12:01;;;;;;;4.10;2.13;;;;;;;;;;5053391;28;20041;-73
2023/04/15 15:15:05;;;;;;;4.88;2.33;;;14.30;99.90;;;;;;5053161;28;20037;-75
2023/04/15 15:18:10;;;;;;;5.07;2.15;;;14.50;99.90;;;;;;5054166;28;20056;-76
2023/04/15 15:21:17;;;;;;;3.45;2.03;;;17.70;99.90;;;;;;5052325;28;20396;-73
2023/04/15 15:24:21;;;;;;;5.63;2.65;;;14.70;99.90;;;;;;5055477;28;20515;-72
2023/04/15 15:27:26;;;;;;;4.75;1.90;;;;;;;;;;5054146;28;20060;-75
2023/04/15 15:30:30;;;;;;;3.95;2.20;;;;;;;;;;5052703;28;20040;-74
2023/04/15 15:33:34;;;;;;;2.97;1.58;;;14.30;99.90;;;;;;5053009;28;20044;-75
2023/04/15 15:36:38;;;;;;;3.15;1.80;;;;;;;;;;5053211;28;20048;-76
2023/04/15 15:39:42;;;;;;;4.80;2.30;;;;;;;;;;5053694;28;20489;-75
2023/04/15 15:42:49;;;;;;;4.38;1.77;;;;;;;;;;5053570;28;20037;-75
2023/04/15 15:45:54;;;;;;;4.88;2.20;;;12.80;99.80;;;;;;5052973;28;20037;-75
2023/04/15 15:48:58;;;;;;;3.28;1.85;;;17.30;99.90;;;;;;5052932;28;20048;-75
2023/04/15 15:52:02;;;;;;;4.22;1.90;;;14.40;99.90;;;;;;5052769;28;20060;-75
2023/04/15 15:55:07;;;;;;;5.38;1.52;;;15.30;99.90;;;;;;5052200;28;20115;-74
2023/04/15 15:58:11;;;;;;;2.35;1.33;;;;;;;;;;5053274;28;20052;-75
2023/04/15 16:01:16;;;;;;;4.55;1.80;;;;;;;;;;5051488;28;20037;-75
2023/04/15 16:04:20;;;;;;;2.53;1.38;;;;;;;;;;5052537;28;20037;-76
2023/04/15 16:07:24;;;;;;;4.75;1.95;;;;;;;;;;5051794;28;20037;-74
2023/04/15 16:10:29;;;;;;;5.65;2.25;;;;;;;;;;5051711;28;20434;-75
2023/04/15 16:13:33;;;;;;;5.03;2.22;;;;;;;;;;5052136;28;20032;-74
2023/04/15 16:16:40;;;;;;;1.10;0.82;;;14.20;97.20;;;;;;5051855;28;20033;-75
2023/04/15 16:19:45;;;;;;;2.28;1.10;;;;;;;;;;5051091;28;20068;-76
2023/04/15 16:22:49;;;;;;;2.15;0.93;;;15.80;98.10;;;;;;5051520;28;20132;-75
2023/04/15 16:25:53;;;;;;;5.40;3.40;;;;;;;;;;5051393;28;20072;-74
2023/04/15 16:28:57;;;;;;;4.65;2.38;;;18.60;99.90;;;;;;5051835;28;20041;-77
2023/04/15 16:32:01;;;;;;;8.95;3.72;;;;;;;;;;5050813;28;20048;-75
2023/04/15 16:35:06;;;;;;;4.55;2.75;;;14.20;99.90;;;;;;5038845;28;20037;-74
2023/04/15 16:38:10;;;;;;;8.65;3.63;;;;;;;;;;5051195;28;20454;-76